Time;durP1;ratioP1;P1;durP2;ratioP2;P2;SDS_P1;SDS_P2;PMS_P1;PMS_P2;Temp;Humidity;BMP_temperature;BMP_pressure;BME280_temperature;BME280_humidity;BME280_pressure;Samples;Min_cycle;Max_cycle;Signal;HPM_P1;HPM_P2
2023/10/30 00:01:45;;;;;;;6.65;1.83;;;12.30;99.90;;;;;;5047652;28;20064;-73
2023/10/30 00:04:11;;;;;;;8.93;1.80;;;12.30;99.90;;;;;;5048689;28;20114;-74
2023/10/30 00:06:36;;;;;;;4.88;1.65;;;12.30;99.90;;;;;;5048996;28;22356;-74
2023/10/30 00:09:02;;;;;;;7.80;1.75;;;12.30;99.90;;;;;;5052500;28;20025;-74
2023/10/30 00:11:27;;;;;;;4.15;1.50;;;12.20;99.90;;;;;;5052618;28;20479;-73
2023/10/30 00:13:53;;;;;;;5.45;1.35;;;12.20;99.90;;;;;;5052082;28;20033;-73
2023/10/30 00:16:20;;;;;;;3.80;1.35;;;12.20;99.90;;;;;;5052096;28;20031;-73
2023/10/30 00:18:46;;;;;;;5.60;1.75;;;12.30;99.90;;;;;;5051774;28;20021;-73
2023/10/30 00:21:11;;;;;;;4.90;1.60;;;12.30;99.90;;;;;;5050352;28;20389;-73
2023/10/30 00:23:37;;;;;;;5.07;1.55;;;12.30;99.90;;;;;;5052156;28;20028;-73
2023/10/30 00:26:04;;;;;;;5.80;1.40;;;12.20;99.90;;;;;;5050572;28;20033;-72
2023/10/30 00:28:30;;;;;;;8.32;1.52;;;12.30;99.90;;;;;;5051609;28;20071;-74
2023/10/30 00:30:56;;;;;;;9.55;1.85;;;12.30;99.90;;;;;;5051907;28;20047;-73
2023/10/30 00:33:22;;;;;;;4.03;1.50;;;12.30;99.90;;;;;;5050525;28;20029;-73
2023/10/30 00:35:48;;;;;;;5.28;1.63;;;12.30;99.90;;;;;;5051680;28;20043;-73
2023/10/30 00:38:13;;;;;;;7.10;1.70;;;12.30;99.90;;;;;;5051493;28;20036;-73
2023/10/30 00:40:39;;;;;;;5.68;1.73;;;12.30;99.90;;;;;;5051613;28;20140;-74
2023/10/30 00:43:04;;;;;;;14.85;2.33;;;12.30;99.90;;;;;;5051645;28;20498;-74
2023/10/30 00:45:30;;;;;;;6.38;2.00;;;12.30;99.90;;;;;;5051783;28;20123;-74
2023/10/30 00:47:56;;;;;;;8.40;1.85;;;12.30;99.90;;;;;;5051042;28;20114;-74
2023/10/30 00:50:21;;;;;;;7.40;1.55;;;12.30;99.90;;;;;;5051559;28;20021;-74
2023/10/30 00:52:47;;;;;;;8.38;2.28;;;12.20;99.90;;;;;;5051400;28;20029;-74
2023/10/30 00:55:13;;;;;;;5.68;1.90;;;12.30;99.90;;;;;;5051639;28;20555;-71
2023/10/30 00:57:38;;;;;;;4.20;1.70;;;12.20;99.90;;;;;;5051051;28;20027;-70
2023/10/30 01:00:05;;;;;;;12.05;1.70;;;12.30;99.90;;;;;;5049845;28;20036;-70
2023/10/30 01:02:31;;;;;;;5.40;1.55;;;12.30;99.90;;;;;;5049779;28;20033;-71
2023/10/30 01:04:57;;;;;;;11.25;1.63;;;12.30;99.90;;;;;;5051293;28;20017;-70
2023/10/30 01:07:23;;;;;;;14.27;2.03;;;12.40;99.90;;;;;;5050861;28;20498;-70
2023/10/30 01:09:49;;;;;;;6.95;2.05;;;12.40;99.90;;;;;;5051187;28;20032;-70
2023/10/30 01:12:14;;;;;;;5.57;1.60;;;12.40;99.90;;;;;;5051081;28;20103;-70
2023/10/30 01:14:40;;;;;;;7.05;2.05;;;12.40;99.90;;;;;;5049543;28;20033;-71
2023/10/30 01:17:06;;;;;;;5.75;2.00;;;12.40;99.90;;;;;;5050918;28;20028;-70
2023/10/30 01:19:31;;;;;;;12.15;1.77;;;12.40;99.90;;;;;;5050366;28;20033;-70
2023/10/30 01:21:57;;;;;;;8.05;1.50;;;12.40;99.90;;;;;;5051012;28;20274;-70
2023/10/30 01:24:22;;;;;;;6.55;1.23;;;12.40;99.90;;;;;;5051116;28;20047;-70
2023/10/30 01:26:48;;;;;;;4.68;1.70;;;12.50;99.90;;;;;;5050872;28;20383;-71
2023/10/30 01:29:13;;;;;;;5.47;1.58;;;12.50;99.90;;;;;;5050834;28;20032;-70
2023/10/30 01:31:39;;;;;;;8.95;1.50;;;12.50;99.90;;;;;;5049206;28;20032;-71
2023/10/30 01:34:05;;;;;;;7.28;1.70;;;12.50;99.90;;;;;;5050679;28;20052;-72
2023/10/30 01:36:30;;;;;;;3.63;1.23;;;12.50;99.90;;;;;;5048840;28;20498;-71
2023/10/30 01:38:56;;;;;;;6.28;1.70;;;12.50;99.90;;;;;;5049602;28;20025;-71
2023/10/30 01:41:23;;;;;;;4.65;1.17;;;12.50;99.90;;;;;;5048652;28;20390;-73
2023/10/30 01:43:49;;;;;;;4.82;1.83;;;12.40;99.90;;;;;;5050011;28;20031;-73
2023/10/30 01:46:15;;;;;;;7.05;1.45;;;12.50;99.90;;;;;;5049810;28;20033;-73
2023/10/30 01:48:41;;;;;;;7.63;2.40;;;12.40;99.90;;;;;;5048019;28;20021;-73
2023/10/30 01:51:07;;;;;;;5.25;1.40;;;12.50;99.90;;;;;;5052755;28;20104;-72
2023/10/30 01:53:34;;;;;;;9.60;1.83;;;12.40;99.90;;;;;;5050141;28;20534;-72
2023/10/30 01:56:03;;;;;;;5.82;1.50;;;12.40;99.90;;;;;;5049064;28;20017;-74
2023/10/30 01:58:29;;;;;;;4.60;1.50;;;12.40;99.90;;;;;;5048856;28;20032;-74
2023/10/30 02:00:56;;;;;;;11.07;2.30;;;12.40;99.90;;;;;;5050287;28;20033;-74
2023/10/30 02:03:22;;;;;;;5.88;1.50;;;12.40;99.90;;;;;;5050129;28;20036;-74
2023/10/30 02:05:47;;;;;;;4.53;1.88;;;12.40;99.90;;;;;;5048776;28;20402;-73
2023/10/30 02:08:15;;;;;;;5.55;1.52;;;12.40;99.90;;;;;;5040607;28;20021;-72
2023/10/30 02:10:40;;;;;;;5.15;1.50;;;12.40;99.90;;;;;;5048871;28;20028;-73
2023/10/30 02:13:10;;;;;;;12.38;2.38;;;12.40;99.90;;;;;;5050105;28;20025;-73
2023/10/30 02:15:36;;;;;;;5.65;2.35;;;12.40;99.90;;;;;;5048732;28;20440;-72
2023/10/30 02:18:02;;;;;;;6.45;2.55;;;12.40;99.90;;;;;;5047996;28;20031;-73
2023/10/30 02:20:28;;;;;;;6.10;1.98;;;12.40;99.90;;;;;;5041588;28;20490;-72
2023/10/30 02:22:53;;;;;;;11.40;2.40;;;12.30;99.90;;;;;;5043100;28;20039;-73
2023/10/30 02:25:23;;;;;;;6.70;2.10;;;12.30;99.90;;;;;;5045348;28;20052;-72
2023/10/30 02:27:50;;;;;;;6.40;1.70;;;12.30;99.90;;;;;;5047818;28;20486;-73
2023/10/30 02:30:16;;;;;;;10.32;1.80;;;12.30;99.90;;;;;;5049203;28;20036;-73
2023/10/30 02:32:44;;;;;;;4.25;1.88;;;12.30;99.90;;;;;;5049550;28;20013;-73
2023/10/30 02:35:14;;;;;;;10.07;2.45;;;12.30;99.90;;;;;;5049673;28;20471;-74
2023/10/30 02:37:40;;;;;;;6.32;1.70;;;12.30;99.90;;;;;;5043993;28;20020;-75
2023/10/30 02:40:07;;;;;;;7.25;1.45;;;12.30;99.90;;;;;;5039521;28;20084;-73
2023/10/30 02:42:32;;;;;;;16.63;2.10;;;12.30;99.90;;;;;;5041524;28;20313;-73
2023/10/30 02:44:58;;;;;;;6.22;1.40;;;12.30;99.90;;;;;;5040089;28;20041;-75
2023/10/30 02:47:24;;;;;;;4.85;2.05;;;12.20;99.90;;;;;;5044581;28;20321;-74
2023/10/30 02:49:50;;;;;;;7.93;1.67;;;12.20;99.90;;;;;;5041194;28;20466;-73
2023/10/30 02:52:17;;;;;;;2.70;1.40;;;12.20;99.90;;;;;;5044813;28;20017;-74
2023/10/30 02:54:43;;;;;;;8.02;2.15;;;12.20;99.90;;;;;;5040194;28;20044;-73
2023/10/30 02:57:08;;;;;;;8.13;1.80;;;12.20;99.90;;;;;;5043615;28;20528;-73
2023/10/30 02:59:34;;;;;;;6.25;1.20;;;12.20;99.90;;;;;;5049644;28;20127;-73
2023/10/30 03:01:59;;;;;;;5.25;1.40;;;12.20;99.90;;;;;;5049283;28;20473;-73
2023/10/30 03:04:25;;;;;;;5.30;1.65;;;12.10;99.90;;;;;;5048038;28;20078;-74
2023/10/30 03:06:50;;;;;;;3.95;1.27;;;12.20;99.90;;;;;;5049027;28;20074;-74
2023/10/30 03:09:16;;;;;;;4.03;1.58;;;12.10;99.90;;;;;;5049210;28;20142;-73
2023/10/30 03:11:41;;;;;;;6.90;1.60;;;12.10;99.90;;;;;;5049174;28;20057;-72
2023/10/30 03:14:32;;;;;;;3.22;1.20;;;12.10;99.90;;;;;;5049042;28;20029;-73
2023/10/30 03:16:58;;;;;;;8.27;1.52;;;12.10;99.90;;;;;;5047569;28;20052;-72
2023/10/30 03:19:23;;;;;;;4.25;1.38;;;12.10;99.90;;;;;;5048135;28;20052;-72
2023/10/30 03:21:49;;;;;;;4.93;1.60;;;12.00;99.90;;;;;;5047802;28;20022;-73
2023/10/30 03:24:14;;;;;;;8.70;2.15;;;12.00;99.90;;;;;;5047835;28;20033;-73
2023/10/30 03:26:40;;;;;;;7.78;1.50;;;12.00;99.90;;;;;;5047731;28;20017;-72
2023/10/30 03:29:05;;;;;;;4.13;1.30;;;12.00;99.90;;;;;;5048790;28;20074;-72
2023/10/30 03:31:31;;;;;;;8.25;1.98;;;12.00;99.90;;;;;;5047814;28;20447;-72
2023/10/30 03:33:56;;;;;;;5.68;1.40;;;12.00;99.90;;;;;;5047731;28;20420;-71
2023/10/30 03:36:23;;;;;;;5.57;1.90;;;12.00;99.90;;;;;;5048489;28;20554;-70
2023/10/30 03:38:53;;;;;;;5.60;1.70;;;12.00;99.90;;;;;;5048521;28;20039;-70
2023/10/30 03:41:19;;;;;;;7.13;1.60;;;12.10;99.90;;;;;;5049063;28;20029;-74
2023/10/30 03:43:45;;;;;;;3.45;1.27;;;12.10;99.90;;;;;;5051926;28;20147;-73
2023/10/30 03:46:11;;;;;;;3.95;1.50;;;12.10;99.90;;;;;;5039299;28;20025;-73
2023/10/30 03:48:36;;;;;;;4.30;1.30;;;12.00;99.90;;;;;;5040388;28;20108;-74
2023/10/30 03:51:03;;;;;;;7.18;1.70;;;12.00;99.90;;;;;;5038923;28;20100;-73
2023/10/30 03:53:29;;;;;;;4.53;2.17;;;12.00;99.90;;;;;;5052523;28;20032;-75
2023/10/30 03:55:55;;;;;;;7.68;2.00;;;12.10;99.90;;;;;;5053051;28;20021;-74
2023/10/30 03:58:20;;;;;;;6.45;1.42;;;12.00;99.90;;;;;;5044379;28;20312;-74
2023/10/30 04:00:46;;;;;;;9.27;2.42;;;12.00;99.90;;;;;;5052491;28;20574;-73
2023/10/30 04:03:12;;;;;;;8.00;2.15;;;12.00;99.90;;;;;;5052528;28;20032;-74
2023/10/30 04:05:38;;;;;;;7.82;1.85;;;12.00;99.90;;;;;;5052895;28;20083;-74
2023/10/30 04:08:03;;;;;;;7.63;2.08;;;12.00;99.90;;;;;;5052111;28;20028;-74
2023/10/30 04:10:29;;;;;;;8.02;2.60;;;12.00;99.90;;;;;;5052560;28;20341;-74
2023/10/30 04:12:55;;;;;;;5.57;1.65;;;12.00;99.90;;;;;;5052549;28;20382;-74
2023/10/30 04:15:20;;;;;;;9.07;2.00;;;12.00;99.90;;;;;;5052388;28;20067;-74
2023/10/30 04:17:46;;;;;;;10.23;1.83;;;12.00;99.90;;;;;;5052448;28;20033;-75
2023/10/30 04:20:12;;;;;;;8.23;2.22;;;12.00;99.90;;;;;;5052841;28;20398;-74
2023/10/30 04:22:37;;;;;;;6.25;1.95;;;12.00;99.90;;;;;;5052537;28;20116;-75
2023/10/30 04:25:06;;;;;;;10.00;1.60;;;12.00;99.90;;;;;;5052386;28;20305;-74
2023/10/30 04:27:31;;;;;;;8.82;1.73;;;12.00;99.90;;;;;;5050692;28;20057;-74
2023/10/30 04:29:57;;;;;;;7.70;2.08;;;12.00;99.90;;;;;;5052340;28;20057;-74
2023/10/30 04:32:22;;;;;;;4.55;1.95;;;12.10;99.90;;;;;;5047451;28;20100;-75
2023/10/30 04:34:48;;;;;;;8.65;2.33;;;12.00;99.90;;;;;;5049927;28;20029;-74
2023/10/30 04:37:13;;;;;;;10.23;2.75;;;12.00;99.90;;;;;;5048935;28;20033;-74
2023/10/30 04:39:40;;;;;;;8.90;2.30;;;12.00;99.90;;;;;;5048815;28;20413;-75
2023/10/30 04:42:05;;;;;;;8.13;1.92;;;12.00;99.90;;;;;;5052919;28;20021;-74
2023/10/30 04:44:31;;;;;;;5.40;1.80;;;12.10;99.90;;;;;;5050816;28;20025;-73
2023/10/30 04:46:56;;;;;;;4.35;1.52;;;12.10;99.90;;;;;;5051097;28;20052;-73
2023/10/30 04:49:22;;;;;;;13.57;2.17;;;12.10;99.90;;;;;;5052833;28;20501;-73
2023/10/30 04:51:47;;;;;;;8.15;2.30;;;12.10;99.90;;;;;;5050061;28;20052;-73
2023/10/30 04:54:13;;;;;;;15.10;2.83;;;12.00;99.90;;;;;;5050928;28;20017;-73
2023/10/30 04:56:39;;;;;;;8.38;1.95;;;12.00;99.90;;;;;;5052977;28;20049;-74
2023/10/30 04:59:04;;;;;;;7.18;2.00;;;12.00;99.90;;;;;;5050089;28;20025;-74
2023/10/30 05:01:30;;;;;;;12.25;2.00;;;12.00;99.90;;;;;;5045328;28;20068;-74
2023/10/30 05:03:56;;;;;;;7.60;2.10;;;12.00;99.90;;;;;;5051147;28;20017;-73
2023/10/30 05:06:22;;;;;;;13.10;1.73;;;11.90;99.90;;;;;;5051014;28;20394;-73
2023/10/30 05:08:47;;;;;;;15.48;2.75;;;11.90;99.90;;;;;;5051182;28;20031;-75
2023/10/30 05:11:13;;;;;;;12.20;2.03;;;11.90;99.90;;;;;;5051923;28;20028;-74
2023/10/30 05:13:39;;;;;;;4.97;1.67;;;11.90;99.90;;;;;;5051145;28;20025;-73
2023/10/30 05:16:05;;;;;;;9.20;1.85;;;11.90;99.90;;;;;;5052937;28;20536;-73
2023/10/30 05:18:31;;;;;;;6.72;1.42;;;11.90;99.90;;;;;;5052538;28;20033;-75
2023/10/30 05:21:03;;;;;;;7.30;2.13;;;11.90;99.90;;;;;;5053531;28;20382;-74
2023/10/30 05:23:28;;;;;;;8.73;1.92;;;11.90;99.90;;;;;;5051442;28;20017;-73
2023/10/30 05:25:54;;;;;;;4.78;2.25;;;11.90;99.90;;;;;;5048440;28;20494;-74
2023/10/30 05:28:19;;;;;;;9.60;2.10;;;11.90;99.90;;;;;;5039498;28;20021;-74
2023/10/30 05:30:45;;;;;;;9.95;2.10;;;11.90;99.90;;;;;;5050497;28;20486;-75
2023/10/30 05:33:10;;;;;;;9.20;1.77;;;11.90;99.90;;;;;;5050756;28;20055;-74
2023/10/30 05:35:36;;;;;;;4.88;1.73;;;11.90;99.90;;;;;;5050731;28;20045;-73
2023/10/30 05:38:04;;;;;;;9.10;2.28;;;11.90;99.90;;;;;;5050397;28;20051;-71
2023/10/30 05:40:29;;;;;;;8.07;1.85;;;11.90;99.90;;;;;;5050702;28;20490;-70
2023/10/30 05:42:55;;;;;;;7.63;1.63;;;11.90;99.90;;;;;;5045250;28;20033;-70
2023/10/30 05:45:20;;;;;;;11.00;2.78;;;11.90;99.90;;;;;;5041184;28;20508;-70
2023/10/30 05:47:47;;;;;;;14.77;2.35;;;11.90;99.90;;;;;;5040714;28;20032;-70
2023/10/30 05:50:13;;;;;;;8.90;1.73;;;11.90;99.90;;;;;;5041667;28;20055;-70
2023/10/30 05:52:38;;;;;;;7.43;1.75;;;11.90;99.90;;;;;;5042105;28;20041;-70
2023/10/30 05:55:04;;;;;;;9.63;2.03;;;11.80;99.90;;;;;;5040579;28;20040;-70
2023/10/30 05:57:31;;;;;;;6.50;2.35;;;11.80;99.90;;;;;;5044802;28;20591;-70
2023/10/30 05:59:56;;;;;;;10.15;1.88;;;11.80;99.90;;;;;;5050202;28;20025;-70
2023/10/30 06:02:22;;;;;;;9.50;1.95;;;11.80;99.90;;;;;;5050136;28;20407;-70
2023/10/30 06:04:47;;;;;;;11.38;2.00;;;11.80;99.90;;;;;;5049996;28;20448;-68
2023/10/30 06:07:13;;;;;;;8.02;2.35;;;11.80;99.90;;;;;;5048488;28;20454;-70
2023/10/30 06:09:38;;;;;;;8.80;1.88;;;11.80;99.90;;;;;;5050174;28;20203;-70
2023/10/30 06:12:05;;;;;;;7.38;2.10;;;11.80;99.90;;;;;;5049995;28;20291;-69
2023/10/30 06:14:30;;;;;;;4.70;1.88;;;11.80;99.90;;;;;;5049373;28;20379;-70
2023/10/30 06:16:56;;;;;;;6.50;2.30;;;11.80;99.90;;;;;;5048068;28;20035;-70
2023/10/30 06:19:21;;;;;;;8.68;1.77;;;11.80;99.90;;;;;;5049663;28;20553;-70
2023/10/30 06:21:47;;;;;;;9.55;2.30;;;11.80;99.90;;;;;;5039118;28;20368;-70
2023/10/30 06:24:12;;;;;;;4.20;1.73;;;11.90;99.90;;;;;;5049299;28;20033;-70
2023/10/30 06:26:41;;;;;;;8.90;1.80;;;11.90;99.90;;;;;;5048095;28;20115;-69
2023/10/30 06:29:08;;;;;;;12.68;2.88;;;11.80;99.90;;;;;;5048450;28;20017;-70
2023/10/30 06:31:33;;;;;;;4.55;1.80;;;11.90;99.90;;;;;;5049048;28;20025;-71
2023/10/30 06:33:59;;;;;;;14.63;2.65;;;11.90;99.90;;;;;;5034828;28;20227;-71
2023/10/30 06:36:24;;;;;;;7.20;2.78;;;11.90;99.90;;;;;;5039564;28;20049;-71
2023/10/30 06:38:50;;;;;;;7.97;2.10;;;11.90;99.90;;;;;;5036696;28;20425;-71
2023/10/30 06:41:15;;;;;;;5.78;2.35;;;11.90;99.90;;;;;;5037228;28;20021;-69
2023/10/30 06:43:42;;;;;;;9.93;2.25;;;11.90;99.90;;;;;;5037650;28;20432;-70
2023/10/30 06:46:08;;;;;;;5.28;2.03;;;11.90;99.90;;;;;;5042601;28;20017;-70
2023/10/30 06:48:33;;;;;;;6.50;2.22;;;11.90;99.90;;;;;;5040216;28;20418;-70
2023/10/30 06:50:59;;;;;;;12.27;2.30;;;11.90;99.90;;;;;;5042948;28;20104;-71
2023/10/30 06:53:25;;;;;;;8.07;2.22;;;11.90;99.90;;;;;;5047911;28;20017;-70
2023/10/30 06:55:51;;;;;;;5.82;1.85;;;11.90;99.90;;;;;;5048180;28;20041;-71
2023/10/30 06:58:17;;;;;;;8.43;2.30;;;11.90;99.90;;;;;;5048112;28;20110;-71
2023/10/30 07:00:43;;;;;;;10.65;2.35;;;11.90;99.90;;;;;;5047652;28;20055;-71
2023/10/30 07:03:09;;;;;;;8.82;2.20;;;12.00;99.90;;;;;;5048974;28;20486;-71
2023/10/30 07:05:35;;;;;;;9.18;2.20;;;12.00;99.90;;;;;;5047663;28;20024;-71
2023/10/30 07:08:00;;;;;;;10.45;2.10;;;12.00;99.90;;;;;;5048746;28;20497;-71
2023/10/30 07:10:26;;;;;;;9.32;2.15;;;12.00;99.90;;;;;;5049313;28;20078;-72
2023/10/30 07:12:51;;;;;;;6.60;1.77;;;12.00;99.90;;;;;;5049069;28;20067;-72
2023/10/30 07:15:17;;;;;;;9.23;2.15;;;12.00;99.90;;;;;;5048900;28;20071;-73
2023/10/30 07:17:43;;;;;;;8.88;2.25;;;12.00;99.90;;;;;;5051191;28;20090;-72
2023/10/30 07:20:09;;;;;;;6.90;2.22;;;12.10;99.90;;;;;;5053255;28;20028;-72
2023/10/30 07:22:36;;;;;;;6.25;2.03;;;12.10;99.90;;;;;;5052645;28;20037;-72
2023/10/30 07:25:02;;;;;;;10.77;2.78;;;12.10;99.90;;;;;;5042959;28;20025;-72
2023/10/30 07:27:27;;;;;;;9.60;1.90;;;12.10;99.90;;;;;;5043086;28;20029;-72
2023/10/30 07:29:53;;;;;;;14.50;2.60;;;12.10;99.90;;;;;;5038308;28;20421;-72
2023/10/30 07:32:19;;;;;;;9.57;2.42;;;12.10;99.90;;;;;;5041830;28;20025;-72
2023/10/30 07:34:45;;;;;;;8.50;2.72;;;12.20;99.90;;;;;;5039208;28;20029;-73
2023/10/30 07:37:11;;;;;;;5.47;2.38;;;12.20;99.90;;;;;;5044607;28;20027;-73
2023/10/30 07:39:36;;;;;;;4.20;2.05;;;12.30;99.90;;;;;;5041535;28;20025;-72
2023/10/30 07:42:02;;;;;;;8.23;2.15;;;12.30;99.90;;;;;;5041045;28;20452;-72
2023/10/30 07:44:27;;;;;;;9.52;2.35;;;12.30;99.90;;;;;;5043591;28;20021;-72
2023/10/30 07:46:53;;;;;;;9.55;2.05;;;12.40;99.90;;;;;;5042190;28;20021;-72
2023/10/30 07:49:19;;;;;;;8.15;2.58;;;12.40;99.90;;;;;;5045110;28;20046;-70
2023/10/30 07:51:45;;;;;;;8.98;2.80;;;12.40;99.90;;;;;;5042033;28;20028;-71
2023/10/30 07:54:10;;;;;;;10.95;2.00;;;12.40;99.90;;;;;;5042941;28;20017;-72
2023/10/30 07:56:36;;;;;;;14.38;2.30;;;12.50;99.90;;;;;;5042725;28;20010;-73
2023/10/30 07:59:05;;;;;;;10.65;2.03;;;12.50;99.90;;;;;;5041403;28;20025;-71
2023/10/30 08:01:31;;;;;;;8.30;2.80;;;12.50;99.90;;;;;;5043314;28;20014;-72
2023/10/30 08:03:56;;;;;;;9.55;2.38;;;12.50;99.90;;;;;;5043520;28;20912;-72
2023/10/30 08:06:24;;;;;;;9.15;2.63;;;12.50;99.90;;;;;;5042883;28;20022;-73
2023/10/30 08:08:49;;;;;;;7.53;2.00;;;12.60;99.90;;;;;;5042129;28;20026;-72
2023/10/30 08:11:15;;;;;;;6.85;2.00;;;12.60;99.90;;;;;;5041280;28;20537;-64
2023/10/30 08:13:40;;;;;;;6.07;1.88;;;12.70;99.90;;;;;;5045572;28;20127;-66
2023/10/30 08:16:06;;;;;;;10.60;2.13;;;12.70;99.90;;;;;;5042223;28;20378;-64
2023/10/30 08:18:32;;;;;;;6.43;2.25;;;12.80;99.90;;;;;;5043744;28;20495;-64
2023/10/30 08:20:58;;;;;;;8.13;1.85;;;12.80;99.90;;;;;;5044275;28;20025;-65
2023/10/30 08:23:24;;;;;;;10.55;2.25;;;12.90;99.90;;;;;;5041535;28;20388;-64
2023/10/30 08:25:50;;;;;;;7.50;2.22;;;13.00;99.90;;;;;;5043211;28;20025;-64
2023/10/30 08:28:15;;;;;;;7.35;2.40;;;13.00;99.90;;;;;;5041864;28;20425;-65
2023/10/30 08:30:41;;;;;;;9.98;2.15;;;13.10;99.90;;;;;;5044369;28;20124;-65
2023/10/30 08:33:06;;;;;;;5.35;1.95;;;13.20;99.90;;;;;;5042829;28;20407;-65
2023/10/30 08:35:32;;;;;;;5.43;2.42;;;13.30;99.90;;;;;;5043176;28;20426;-65
2023/10/30 08:37:59;;;;;;;10.95;3.00;;;13.30;99.90;;;;;;5042978;28;20028;-65
2023/10/30 08:40:25;;;;;;;7.80;3.05;;;13.40;99.90;;;;;;5042370;28;20033;-66
2023/10/30 08:42:51;;;;;;;7.00;1.95;;;13.40;99.90;;;;;;5040667;28;20033;-63
2023/10/30 08:45:16;;;;;;;11.88;2.72;;;13.50;99.90;;;;;;5039393;28;20095;-65
2023/10/30 08:47:43;;;;;;;5.55;2.17;;;13.50;99.90;;;;;;5049358;28;20025;-65
2023/10/30 08:50:09;;;;;;;11.32;3.28;;;13.60;99.90;;;;;;5039386;28;20100;-65
2023/10/30 08:52:35;;;;;;;7.95;2.03;;;13.60;99.90;;;;;;5045200;28;20163;-65
2023/10/30 08:55:01;;;;;;;5.90;1.90;;;13.60;99.90;;;;;;5051292;28;20025;-67
2023/10/30 08:57:26;;;;;;;7.57;1.80;;;13.60;99.90;;;;;;5045969;28;20025;-65
2023/10/30 08:59:52;;;;;;;9.02;2.22;;;13.60;99.90;;;;;;5039628;28;20060;-65
2023/10/30 09:02:17;;;;;;;6.85;2.97;;;13.60;99.90;;;;;;5039239;28;20025;-65
2023/10/30 09:04:43;;;;;;;5.70;2.65;;;13.60;99.90;;;;;;5042675;28;20025;-66
2023/10/30 09:07:08;;;;;;;9.20;2.42;;;13.70;99.90;;;;;;5042435;28;20104;-66
2023/10/30 09:09:34;;;;;;;7.43;1.83;;;13.70;99.90;;;;;;5041496;28;20033;-67
2023/10/30 09:12:00;;;;;;;5.35;1.85;;;13.70;99.90;;;;;;5042907;28;20025;-65
2023/10/30 09:14:25;;;;;;;5.88;1.73;;;13.80;99.90;;;;;;5041904;28;20091;-66
2023/10/30 09:16:51;;;;;;;10.77;2.47;;;13.80;99.90;;;;;;5043737;28;20561;-66
2023/10/30 09:19:17;;;;;;;8.00;2.03;;;13.80;99.90;;;;;;5040818;28;20036;-67
2023/10/30 09:21:42;;;;;;;8.23;1.60;;;13.80;99.90;;;;;;5040525;28;20025;-65
2023/10/30 09:24:08;;;;;;;10.02;2.30;;;13.90;99.90;;;;;;5042524;28;20017;-66
2023/10/30 09:26:34;;;;;;;6.95;1.88;;;13.90;99.90;;;;;;5039798;28;20105;-67
2023/10/30 09:28:59;;;;;;;7.30;2.47;;;13.90;99.90;;;;;;5039578;28;20037;-66
2023/10/30 09:31:25;;;;;;;6.63;1.63;;;14.00;99.90;;;;;;5039561;28;20036;-67
2023/10/30 09:33:50;;;;;;;13.85;1.70;;;14.10;99.90;;;;;;5036758;28;20025;-68
2023/10/30 09:36:16;;;;;;;11.20;2.40;;;14.30;99.90;;;;;;5036878;28;20018;-64
2023/10/30 09:38:41;;;;;;;11.20;2.10;;;14.50;99.90;;;;;;5038635;28;20487;-64
2023/10/30 09:41:10;;;;;;;5.57;1.83;;;14.90;99.90;;;;;;5036793;28;20036;-64
2023/10/30 09:43:37;;;;;;;3.83;1.52;;;16.00;99.90;;;;;;5035493;28;20063;-67
2023/10/30 09:46:06;;;;;;;11.60;2.13;;;17.50;99.90;;;;;;5037211;28;20187;-65
2023/10/30 09:48:32;;;;;;;7.13;2.22;;;18.70;99.90;;;;;;5038058;28;20025;-64
2023/10/30 09:50:59;;;;;;;7.45;2.30;;;20.20;99.90;;;;;;5040491;28;20025;-67
2023/10/30 09:53:25;;;;;;;7.30;1.60;;;21.10;98.40;;;;;;5038571;28;20029;-66
2023/10/30 09:55:54;;;;;;;3.53;1.90;;;22.10;95.10;;;;;;5038455;28;20502;-68
2023/10/30 09:58:24;;;;;;;7.50;1.70;;;22.90;93.10;;;;;;5039091;28;20044;-67
2023/10/30 10:00:49;;;;;;;3.85;1.55;;;22.70;91.80;;;;;;5038663;28;20028;-67
2023/10/30 10:03:15;;;;;;;15.00;1.88;;;23.00;92.10;;;;;;5047115;28;20036;-68
2023/10/30 10:05:41;;;;;;;10.18;1.83;;;23.40;91.50;;;;;;5047093;28;20040;-68
2023/10/30 10:08:07;;;;;;;9.52;2.00;;;24.00;89.90;;;;;;5047947;28;20120;-68
2023/10/30 10:11:01;;;;;;;3.88;1.33;;;24.20;88.80;;;;;;5049888;28;20482;-68
2023/10/30 10:13:29;;;;;;;8.13;2.00;;;24.30;88.70;;;;;;5048424;28;20108;-67
2023/10/30 10:15:54;;;;;;;5.45;1.70;;;24.60;86.10;;;;;;5048289;28;20760;-68
2023/10/30 10:18:28;;;;;;;3.95;1.52;;;25.90;84.30;;;;;;5050000;28;20116;-67
2023/10/30 10:20:55;;;;;;;4.63;1.60;;;26.10;81.40;;;;;;5049025;28;20056;-68
2023/10/30 10:23:21;;;;;;;3.17;1.58;;;26.40;80.70;;;;;;5048264;28;20520;-68
2023/10/30 10:25:57;;;;;;;5.35;1.80;;;26.10;80.30;;;;;;5049857;28;20025;-69
2023/10/30 10:28:23;;;;;;;3.92;1.80;;;26.20;81.70;;;;;;5049337;28;20100;-69
2023/10/30 10:30:50;;;;;;;9.07;1.95;;;26.50;79.70;;;;;;5049442;28;20021;-69
2023/10/30 10:33:17;;;;;;;3.72;1.77;;;27.20;75.20;;;;;;5047414;28;20071;-71
2023/10/30 10:35:43;;;;;;;7.85;1.90;;;27.20;75.30;;;;;;5037508;28;20479;-70
2023/10/30 10:38:09;;;;;;;4.20;1.60;;;26.90;75.80;;;;;;5034847;28;20108;-69
2023/10/30 10:40:36;;;;;;;8.20;2.40;;;27.30;75.00;;;;;;5036945;28;20032;-70
2023/10/30 10:43:02;;;;;;;2.58;1.45;;;27.40;73.80;;;;;;5035192;28;20029;-70
2023/10/30 10:45:30;;;;;;;5.75;1.60;;;26.70;75.60;;;;;;5038575;28;20155;-70
2023/10/30 10:47:55;;;;;;;5.28;1.95;;;26.40;73.70;;;;;;5034688;28;20057;-69
2023/10/30 10:50:21;;;;;;;4.60;1.55;;;25.30;74.60;;;;;;5037003;28;20552;-69
2023/10/30 10:52:48;;;;;;;3.88;1.83;;;25.80;77.60;;;;;;5037652;28;20022;-69
2023/10/30 10:55:21;;;;;;;6.35;1.95;;;26.10;75.30;;;;;;5044467;28;20021;-69
2023/10/30 10:58:07;;;;;;;4.38;1.73;;;26.10;74.60;;;;;;5048960;28;20155;-69
2023/10/30 11:00:39;;;;;;;4.28;1.70;;;26.60;74.90;;;;;;5049624;28;20501;-68
2023/10/30 11:03:06;;;;;;;8.05;1.80;;;26.80;75.40;;;;;;5048346;28;20061;-70
2023/10/30 11:05:34;;;;;;;3.90;1.55;;;27.90;73.80;;;;;;5047850;28;20029;-70
2023/10/30 11:08:11;;;;;;;3.55;1.30;;;28.20;70.30;;;;;;5047086;28;20108;-69
2023/10/30 11:10:46;;;;;;;5.22;1.75;;;28.20;69.60;;;;;;5049247;28;20029;-69
2023/10/30 11:13:53;;;;;;;4.68;1.55;;;27.80;70.20;;;;;;5047977;28;20036;-70
2023/10/30 11:16:43;;;;;;;5.10;1.15;;;28.10;69.70;;;;;;5047841;28;20045;-69
2023/10/30 11:19:10;;;;;;;4.80;1.38;;;28.30;71.20;;;;;;5047784;28;20040;-69
2023/10/30 11:21:35;;;;;;;4.28;1.50;;;28.50;68.70;;;;;;5052121;28;20020;-69
2023/10/30 11:24:01;;;;;;;4.43;1.50;;;28.60;67.70;;;;;;5042924;28;20078;-69
2023/10/30 11:26:29;;;;;;;8.80;1.65;;;28.20;67.90;;;;;;5041717;28;20558;-69
2023/10/30 11:29:15;;;;;;;5.47;1.77;;;28.10;67.40;;;;;;5040003;28;20040;-68
2023/10/30 11:32:12;;;;;;;6.70;2.20;;;27.80;68.00;;;;;;5040390;28;20048;-70
2023/10/30 11:34:38;;;;;;;3.95;1.70;;;27.40;69.40;;;;;;5038520;28;20486;-68
2023/10/30 11:37:11;;;;;;;5.28;2.10;;;27.40;67.50;;;;;;5048861;28;20067;-68
2023/10/30 11:39:38;;;;;;;6.20;1.70;;;26.00;68.50;;;;;;5037674;28;20068;-68
2023/10/30 11:42:32;;;;;;;4.03;1.70;;;26.30;69.50;;;;;;5038137;28;20029;-68
2023/10/30 11:45:28;;;;;;;3.47;1.42;;;25.90;69.80;;;;;;5036918;28;20451;-69
2023/10/30 11:48:05;;;;;;;4.18;1.90;;;26.20;69.80;;;;;;5041094;28;20021;-68
2023/10/30 11:50:36;;;;;;;1.95;1.00;;;25.80;70.30;;;;;;5034129;28;20305;-69
2023/10/30 11:53:09;;;;;;;3.00;1.33;;;26.50;71.80;;;;;;5038807;28;20022;-69
2023/10/30 11:55:39;;;;;;;3.17;1.35;;;27.30;70.60;;;;;;5039696;28;20022;-69
2023/10/30 11:58:05;;;;;;;4.20;1.67;;;27.90;67.30;;;;;;5038460;28;20033;-70
2023/10/30 12:00:31;;;;;;;2.97;1.75;;;28.20;67.20;;;;;;5038320;28;20025;-70
2023/10/30 12:02:56;;;;;;;2.40;1.42;;;28.10;65.60;;;;;;5038971;28;20508;-68
2023/10/30 12:05:25;;;;;;;3.40;1.40;;;28.20;68.40;;;;;;5041332;28;20028;-69
2023/10/30 12:07:51;;;;;;;3.07;1.30;;;27.70;67.10;;;;;;5042161;28;20025;-69
2023/10/30 12:10:18;;;;;;;4.80;1.70;;;27.50;66.90;;;;;;5040731;28;20029;-69
2023/10/30 12:12:44;;;;;;;6.28;2.05;;;27.30;67.60;;;;;;5050141;28;20421;-68
2023/10/30 12:15:09;;;;;;;4.75;1.70;;;26.40;68.30;;;;;;5051957;28;20021;-68
2023/10/30 12:17:36;;;;;;;2.78;1.60;;;25.80;69.10;;;;;;5051858;28;20029;-69
2023/10/30 12:20:03;;;;;;;3.92;1.67;;;25.50;72.20;;;;;;5052151;28;20552;-69
2023/10/30 12:22:28;;;;;;;5.20;1.85;;;24.70;72.60;;;;;;5052182;28;20071;-69
2023/10/30 12:24:56;;;;;;;7.45;1.90;;;24.20;72.50;;;;;;5049758;28;20509;-68
2023/10/30 12:27:23;;;;;;;7.40;1.45;;;23.50;74.20;;;;;;5051063;28;20379;-69
2023/10/30 12:29:54;;;;;;;4.30;1.70;;;23.40;77.40;;;;;;5051795;28;20566;-67
2023/10/30 12:32:20;;;;;;;3.92;1.10;;;23.10;75.70;;;;;;5051334;28;20040;-69
2023/10/30 12:34:45;;;;;;;2.53;1.20;;;22.60;77.00;;;;;;5051352;28;20171;-68
2023/10/30 12:37:24;;;;;;;2.97;1.10;;;22.00;78.20;;;;;;5051116;28;20033;-68
2023/10/30 12:40:07;;;;;;;4.68;1.55;;;21.80;80.10;;;;;;5049591;28;20037;-68
2023/10/30 12:42:41;;;;;;;3.05;1.10;;;21.80;80.50;;;;;;5038889;28;20029;-67
2023/10/30 12:45:21;;;;;;;6.22;1.50;;;21.50;81.00;;;;;;5050016;28;20025;-67